createdAt,value
2023-02-01T00:00:24.633Z,5.00
2023-02-01T00:02:51.084Z,6.67
2023-02-01T00:05:17.438Z,3.00
2023-02-01T00:07:43.781Z,5.67
2023-02-01T00:10:10.146Z,4.00
2023-02-01T00:15:20.286Z,4.67
2023-02-01T00:17:46.614Z,3.33
2023-02-01T00:20:12.967Z,3.00
2023-02-01T00:22:39.304Z,4.00
2023-02-01T00:25:05.698Z,4.00
2023-02-01T00:30:25.888Z,4.00
2023-02-01T00:32:52.298Z,3.33
2023-02-01T00:35:18.629Z,3.00
2023-02-01T00:37:44.965Z,3.00
2023-02-01T00:40:11.319Z,3.00
2023-02-01T00:45:21.676Z,3.00
2023-02-01T00:47:48.044Z,3.00
2023-02-01T00:50:14.426Z,2.67
2023-02-01T00:52:40.741Z,3.00
2023-02-01T00:55:09.852Z,2.17
2023-02-01T00:57:36.313Z,2.00
2023-02-01T01:00:02.639Z,3.00
2023-02-01T01:02:29.006Z,2.00
2023-02-01T01:04:55.332Z,2.00
2023-02-01T01:07:21.652Z,1.33
2023-02-01T01:09:47.985Z,2.00
2023-02-01T01:12:14.326Z,2.00
2023-02-01T01:14:43.462Z,1.00
2023-02-01T01:17:09.812Z,1.33
2023-02-01T01:19:38.935Z,1.00
2023-02-01T01:22:05.228Z,1.00
2023-02-01T01:24:31.587Z,2.00
2023-02-01T01:26:57.898Z,2.00
2023-02-01T01:29:24.228Z,2.00
2023-02-01T01:31:50.640Z,2.00
2023-02-01T01:34:19.765Z,0.33
2023-02-01T01:36:46.093Z,2.00
2023-02-01T01:39:12.408Z,1.00
2023-02-01T01:41:41.508Z,0.50
2023-02-01T01:44:10.601Z,1.00
2023-02-01T01:46:36.937Z,1.00
2023-02-01T01:49:06.075Z,0.33
2023-02-01T01:51:35.227Z,1.17
2023-02-01T01:54:04.343Z,1.00
2023-02-01T01:56:33.429Z,0.50
2023-02-01T01:59:02.547Z,1.00
2023-02-01T02:01:31.645Z,0.00
2023-02-01T02:04:00.766Z,0.17
2023-02-01T02:06:29.867Z,0.00
2023-02-01T02:08:58.980Z,1.00
2023-02-01T02:11:25.280Z,0.33
2023-02-01T02:13:51.593Z,0.00
2023-02-01T02:19:04.429Z,0.50
2023-02-01T02:21:30.737Z,0.67
2023-02-01T02:23:57.118Z,1.33
2023-02-01T02:26:26.234Z,0.33
2023-02-01T02:28:55.352Z,0.00
2023-02-01T02:34:15.406Z,0.67
2023-02-01T02:36:44.563Z,0.33
2023-02-01T02:39:10.883Z,1.00
2023-02-01T02:41:37.203Z,1.00
2023-02-01T02:44:03.545Z,1.00
2023-02-01T02:49:19.439Z,0.00
2023-02-01T02:51:48.545Z,0.50
2023-02-01T02:54:14.946Z,1.00
2023-02-01T02:56:44.065Z,0.00
2023-02-01T02:59:10.380Z,0.67
2023-02-01T03:04:33.311Z,0.00
2023-02-01T03:06:59.636Z,1.00
2023-02-01T03:09:28.747Z,0.00
2023-02-01T03:11:55.067Z,1.00
2023-02-01T03:14:21.392Z,0.33
2023-02-01T03:19:44.230Z,0.33
2023-02-01T03:22:10.567Z,1.00
2023-02-01T03:24:36.875Z,0.33
2023-02-01T03:27:06.022Z,0.50
2023-02-01T03:29:32.327Z,0.33
2023-02-01T03:34:55.154Z,0.00
2023-02-01T03:37:21.475Z,1.00
2023-02-01T03:39:50.584Z,0.00
2023-02-01T03:42:19.705Z,1.00
2023-02-01T03:44:48.810Z,0.00
2023-02-01T03:50:09.171Z,1.00
2023-02-01T03:52:38.291Z,0.00
2023-02-01T03:55:04.595Z,0.33
2023-02-01T03:57:33.771Z,0.00
2023-02-01T04:00:00.125Z,1.00
2023-02-01T04:05:15.785Z,0.67
2023-02-01T04:07:42.286Z,0.00
2023-02-01T04:10:08.608Z,0.00
2023-02-01T04:12:34.921Z,0.00
2023-02-01T04:15:01.301Z,0.00
2023-02-01T04:20:11.556Z,0.33
2023-02-01T04:22:40.671Z,0.17
2023-02-01T04:25:07.899Z,1.00
2023-02-01T04:27:37.001Z,0.00
2023-02-01T04:30:06.140Z,0.00
2023-02-01T04:35:26.453Z,1.00
2023-02-01T04:37:55.587Z,0.00
2023-02-01T04:40:22.205Z,1.00
2023-02-01T04:42:51.557Z,0.50
2023-02-01T04:45:17.882Z,1.00
2023-02-01T04:50:31.024Z,0.50
2023-02-01T04:52:57.333Z,0.00
2023-02-01T04:55:26.453Z,0.33
2023-02-01T04:57:55.541Z,0.00
2023-02-01T05:00:22.051Z,1.00
2023-02-01T05:05:37.974Z,0.00
2023-02-01T05:08:07.081Z,0.50
2023-02-01T05:10:36.199Z,0.00
2023-02-01T05:13:05.324Z,0.50
2023-02-01T05:15:31.669Z,1.00
2023-02-01T05:20:57.238Z,1.00
2023-02-01T05:23:26.411Z,0.17
2023-02-01T05:25:52.720Z,0.33
2023-02-01T05:28:19.058Z,0.67
2023-02-01T05:30:48.365Z,0.00
2023-02-01T05:36:01.559Z,0.50
2023-02-01T05:38:27.914Z,1.00
2023-02-01T05:40:57.023Z,0.17
2023-02-01T05:43:23.339Z,0.00
2023-02-01T05:45:52.434Z,0.00
2023-02-01T05:51:12.874Z,0.00
2023-02-01T05:53:39.236Z,0.00
2023-02-01T05:56:05.556Z,0.00
2023-02-01T05:58:31.857Z,0.00
2023-02-01T06:01:00.969Z,0.50
2023-02-01T06:06:13.942Z,0.50
2023-02-01T06:08:43.047Z,1.00
2023-02-01T06:11:10.040Z,2.00
2023-02-01T06:13:40.087Z,1.17
2023-02-01T06:16:06.479Z,1.33
2023-02-01T06:21:16.970Z,2.00
2023-02-01T06:23:43.327Z,3.00
2023-02-01T06:26:09.739Z,1.00
2023-02-01T06:28:36.062Z,2.00
2023-02-01T06:31:02.519Z,2.33
2023-02-01T06:33:28.920Z,3.00
2023-02-01T06:35:55.346Z,10.50
2023-02-01T06:38:24.529Z,13.00
2023-02-01T06:40:53.721Z,10.33
2023-02-01T06:43:22.014Z,12.40
2023-02-01T06:45:48.513Z,13.00
2023-02-01T06:48:15.007Z,12.00
2023-02-01T06:50:41.438Z,11.00
2023-02-01T06:53:11.727Z,11.83
2023-02-01T06:55:38.266Z,11.50
2023-02-01T06:58:05.514Z,14.00
2023-02-01T07:00:33.813Z,12.80
2023-02-01T07:03:02.187Z,15.00
2023-02-01T07:05:28.712Z,13.00
2023-02-01T07:07:55.169Z,15.00
2023-02-01T07:10:23.695Z,10.20
2023-02-01T07:12:50.354Z,14.00
2023-02-01T07:15:19.549Z,11.33
2023-02-01T07:17:48.755Z,12.17
2023-02-01T07:20:17.041Z,12.20
2023-02-01T07:22:43.501Z,12.00
2023-02-01T07:25:10.055Z,10.50
2023-02-01T07:27:38.316Z,10.00
2023-02-01T07:30:07.519Z,10.50
2023-02-01T07:32:34.031Z,13.00
2023-02-01T07:35:02.410Z,12.40
2023-02-01T07:37:28.960Z,11.50
2023-02-01T07:39:57.268Z,10.80
2023-02-01T07:42:28.703Z,13.60
2023-02-01T07:44:58.599Z,11.40
2023-02-01T07:47:29.944Z,12.40
2023-02-01T07:49:56.692Z,10.00
2023-02-01T07:52:23.455Z,12.50
2023-02-01T07:54:50.300Z,40.00
2023-02-01T07:57:16.754Z,35.00
2023-02-01T07:59:44.146Z,28.50
2023-02-01T08:02:10.676Z,19.50
2023-02-01T08:04:38.084Z,21.00
2023-02-01T08:09:59.590Z,13.00
2023-02-01T08:12:26.555Z,12.00
2023-02-01T08:14:53.839Z,17.00
2023-02-01T08:17:21.141Z,17.00
2023-02-01T08:19:48.447Z,18.67
2023-02-01T08:24:58.738Z,14.00
2023-02-01T08:27:26.043Z,15.33
2023-02-01T08:29:54.368Z,14.80
2023-02-01T08:32:21.704Z,16.00
2023-02-01T08:34:48.199Z,25.00
2023-02-01T08:39:59.061Z,27.00
2023-02-01T08:42:25.582Z,21.50
2023-02-01T08:44:52.052Z,18.00
2023-02-01T08:47:19.472Z,19.00
2023-02-01T08:49:45.925Z,17.00
2023-02-01T08:55:08.162Z,15.33
2023-02-01T08:57:36.457Z,12.40
2023-02-01T09:00:02.941Z,12.00
2023-02-01T09:02:29.478Z,12.50
2023-02-01T09:04:55.939Z,11.50
2023-02-01T09:10:06.421Z,12.00
2023-02-01T09:12:33.682Z,14.67
2023-02-01T09:15:00.337Z,12.50
2023-02-01T09:20:01.037Z,9.50
2023-02-01T09:25:24.047Z,11.00
2023-02-01T09:27:50.597Z,9.50
2023-02-01T09:30:17.037Z,11.50
2023-02-01T09:32:43.424Z,8.67
2023-02-01T09:35:12.615Z,9.50
2023-02-01T09:40:25.186Z,11.25
2023-02-01T09:42:51.735Z,7.33
2023-02-01T09:45:18.194Z,11.00
2023-02-01T09:47:44.525Z,9.00
2023-02-01T09:50:13.663Z,9.67
2023-02-01T09:55:24.697Z,7.67
2023-02-01T09:57:51.912Z,7.75
2023-02-01T10:00:20.179Z,8.80
2023-02-01T10:02:46.576Z,10.00
2023-02-01T10:05:12.922Z,8.67
2023-02-01T10:10:33.221Z,5.00
2023-02-01T10:12:59.588Z,7.33
2023-02-01T10:15:26.281Z,7.67
2023-02-01T10:17:53.726Z,5.50
2023-02-01T10:20:21.519Z,7.50
2023-02-01T10:25:42.451Z,6.00
2023-02-01T10:28:08.906Z,4.67
2023-02-01T10:30:35.771Z,5.00
2023-02-01T10:33:02.180Z,5.00
2023-02-01T10:35:28.523Z,4.00
2023-02-01T10:40:38.660Z,5.00
2023-02-01T10:43:05.033Z,4.00
2023-02-01T10:45:31.379Z,5.00
2023-02-01T10:47:57.705Z,3.67
2023-02-01T10:50:24.390Z,4.00
2023-02-01T10:52:50.881Z,4.00
2023-02-01T10:55:17.316Z,5.00
2023-02-01T10:57:43.678Z,5.67
2023-02-01T11:00:10.061Z,4.00
2023-02-01T11:02:36.516Z,4.00
2023-02-01T11:05:02.971Z,3.00
2023-02-01T11:07:29.350Z,3.33
2023-02-01T11:09:55.697Z,4.00
2023-02-01T11:12:22.064Z,3.33
2023-02-01T11:14:48.431Z,4.33
2023-02-01T11:17:14.939Z,3.00
2023-02-01T11:19:41.304Z,3.00
2023-02-01T11:22:07.655Z,4.00
2023-02-01T11:24:33.982Z,3.67
2023-02-01T11:27:00.359Z,3.67
2023-02-01T11:29:27.572Z,4.00
2023-02-01T11:31:53.963Z,5.00
2023-02-01T11:34:23.449Z,3.67
2023-02-01T11:36:49.870Z,2.33
2023-02-01T11:39:16.269Z,3.00
2023-02-01T11:41:42.623Z,4.33
2023-02-01T11:44:08.999Z,4.33
2023-02-01T11:46:35.375Z,5.00
2023-02-01T11:49:01.799Z,3.67
2023-02-01T11:51:28.136Z,3.67
2023-02-01T11:53:54.503Z,3.33
2023-02-01T11:56:23.925Z,4.67
2023-02-01T11:58:50.295Z,5.00
2023-02-01T12:01:16.634Z,5.33
2023-02-01T12:03:43.024Z,3.00
2023-02-01T12:06:09.392Z,3.67
2023-02-01T12:08:35.767Z,3.00
2023-02-01T12:13:56.059Z,3.33
2023-02-01T12:16:22.495Z,7.33
2023-02-01T12:18:48.847Z,8.33
2023-02-01T12:21:15.221Z,4.33
2023-02-01T12:23:41.584Z,3.67
2023-02-01T12:29:01.707Z,8.00
2023-02-01T12:31:28.091Z,4.33
2023-02-01T12:33:54.408Z,3.33
2023-02-01T12:36:20.796Z,3.00
2023-02-01T12:38:47.126Z,3.00
2023-02-01T12:44:01.101Z,2.17
2023-02-01T12:46:27.431Z,2.00
2023-02-01T12:48:53.795Z,2.33
2023-02-01T12:51:20.170Z,2.33
2023-02-01T12:53:47.864Z,3.33
2023-02-01T12:58:58.082Z,2.00
2023-02-01T13:01:24.467Z,3.67
2023-02-01T13:03:51.151Z,3.00
2023-02-01T13:06:17.515Z,3.00
2023-02-01T13:08:43.918Z,3.00
2023-02-01T13:14:04.345Z,4.33
2023-02-01T13:16:30.728Z,3.00
2023-02-01T13:18:57.083Z,3.33
2023-02-01T13:21:23.440Z,3.00
2023-02-01T13:23:49.757Z,2.33
2023-02-01T13:29:10.171Z,3.33
2023-02-01T13:31:36.588Z,2.00
2023-02-01T13:34:03.171Z,4.33
2023-02-01T13:36:29.559Z,5.33
2023-02-01T13:38:55.898Z,3.67
2023-02-01T13:44:06.511Z,3.33
2023-02-01T13:46:32.862Z,5.00
2023-02-01T13:48:59.195Z,6.00
2023-02-01T13:51:25.532Z,4.00
2023-02-01T13:53:51.913Z,4.00
2023-02-01T13:59:02.434Z,4.33
2023-02-01T14:01:28.812Z,4.00
2023-02-01T14:03:55.200Z,4.00
2023-02-01T14:06:21.544Z,5.00
2023-02-01T14:08:47.886Z,5.00
2023-02-01T14:11:14.284Z,4.00
2023-02-01T14:13:40.641Z,3.33
2023-02-01T14:16:07.046Z,4.67
2023-02-01T14:18:33.421Z,3.67
2023-02-01T14:20:59.788Z,5.00
2023-02-01T14:23:26.153Z,4.00
2023-02-01T14:25:52.516Z,2.33
2023-02-01T14:28:18.873Z,3.33
2023-02-01T14:30:45.335Z,3.33
2023-02-01T14:33:11.786Z,4.00
2023-02-01T14:35:38.155Z,5.00
2023-02-01T14:38:04.540Z,5.67
2023-02-01T14:40:31.023Z,3.33
2023-02-01T14:42:57.399Z,4.67
2023-02-01T14:45:24.528Z,3.00
2023-02-01T14:47:51.414Z,4.00
2023-02-01T14:50:17.771Z,5.00
2023-02-01T14:52:44.132Z,4.33
2023-02-01T14:55:10.496Z,3.67
2023-02-01T14:57:36.826Z,5.00
2023-02-01T15:00:03.204Z,4.00
2023-02-01T15:02:29.566Z,5.00
2023-02-01T15:04:56.017Z,5.00
2023-02-01T15:07:22.399Z,4.33
2023-02-01T15:09:48.748Z,5.00
2023-02-01T15:12:15.131Z,3.33
2023-02-01T15:17:35.351Z,4.00
2023-02-01T15:20:01.766Z,5.33
2023-02-01T15:22:28.101Z,5.33
2023-02-01T15:24:54.442Z,7.33
2023-02-01T15:27:20.790Z,3.00
2023-02-01T15:32:31.627Z,4.00
2023-02-01T15:34:57.929Z,4.00
2023-02-01T15:37:24.443Z,4.00
2023-02-01T15:39:50.803Z,3.33
2023-02-01T15:42:17.134Z,3.33
2023-02-01T15:47:37.598Z,3.33
2023-02-01T15:50:06.714Z,0.17
2023-02-01T15:52:33.105Z,2.67
2023-02-01T15:54:59.672Z,2.67
2023-02-01T15:57:25.991Z,2.67
2023-02-01T16:02:36.522Z,1.33
2023-02-01T16:05:02.889Z,3.00
2023-02-01T16:07:29.274Z,3.33
2023-02-01T16:09:58.378Z,1.00
2023-02-01T16:12:24.713Z,2.00
2023-02-01T16:17:35.102Z,3.00
2023-02-01T16:20:01.583Z,2.33
2023-02-01T16:22:28.074Z,2.00
2023-02-01T16:24:54.432Z,2.67
2023-02-01T16:27:20.800Z,3.67
2023-02-01T16:32:40.868Z,2.67
2023-02-01T16:35:07.642Z,3.00
2023-02-01T16:37:34.051Z,2.33
2023-02-01T16:40:00.409Z,3.67
2023-02-01T16:42:26.752Z,3.33
2023-02-01T16:47:39.738Z,3.00
2023-02-01T16:50:17.278Z,3.33
2023-02-01T16:52:44.090Z,3.00
2023-02-01T16:55:10.432Z,2.00
2023-02-01T16:57:37.040Z,4.00
2023-02-01T17:02:47.585Z,21.00
2023-02-01T17:05:15.901Z,10.80
2023-02-01T17:07:42.329Z,9.00
2023-02-01T17:10:09.558Z,6.00
2023-02-01T17:12:35.908Z,4.33
2023-02-01T17:17:56.091Z,4.33
2023-02-01T17:20:22.519Z,5.33
2023-02-01T17:22:48.867Z,7.67
2023-02-01T17:25:17.099Z,79.67
2023-02-01T17:27:45.362Z,73.00
2023-02-01T17:32:57.053Z,49.00
2023-02-01T17:35:24.942Z,46.33
2023-02-01T17:37:52.583Z,43.00
2023-02-01T17:40:20.026Z,40.67
2023-02-01T17:42:46.683Z,38.00
2023-02-01T17:47:58.643Z,30.50
2023-02-01T17:50:25.112Z,25.50
2023-02-01T17:52:51.570Z,25.00
2023-02-01T17:55:18.871Z,21.00
2023-02-01T17:57:45.358Z,24.50
2023-02-01T18:00:11.824Z,18.00
2023-02-01T18:02:38.309Z,19.50
2023-02-01T18:05:05.737Z,16.67
2023-02-01T18:07:32.376Z,20.00
2023-02-01T18:09:58.842Z,18.00
2023-02-01T18:12:25.278Z,17.00
2023-02-01T18:14:52.592Z,15.67
2023-02-01T18:17:19.884Z,15.33
2023-02-01T18:19:46.349Z,13.50
2023-02-01T18:22:15.437Z,13.50
2023-02-01T18:24:41.872Z,11.50
2023-02-01T18:27:11.056Z,10.17
2023-02-01T18:29:40.226Z,11.17
2023-02-01T18:32:08.550Z,14.00
2023-02-01T18:34:35.027Z,10.00
2023-02-01T18:37:03.297Z,13.20
2023-02-01T18:39:31.604Z,13.80
2023-02-01T18:41:58.830Z,12.33
2023-02-01T18:44:25.690Z,14.50
2023-02-01T18:46:53.997Z,12.40
2023-02-01T18:49:20.470Z,13.00
2023-02-01T18:51:46.978Z,12.00
2023-02-01T18:54:13.527Z,13.50
2023-02-01T18:56:39.974Z,16.00
2023-02-01T18:59:06.490Z,13.00
2023-02-01T19:01:33.046Z,12.50
2023-02-01T19:04:07.031Z,12.00
2023-02-01T19:06:40.095Z,11.83
2023-02-01T19:09:06.527Z,13.50
2023-02-01T19:11:32.970Z,11.00
2023-02-01T19:13:59.360Z,11.00
2023-02-01T19:16:27.623Z,10.40
2023-02-01T19:21:40.152Z,10.50
2023-02-01T19:24:06.623Z,11.00
2023-02-01T19:26:34.963Z,10.60
2023-02-01T19:29:01.295Z,7.67
2023-02-01T19:31:27.828Z,12.00
2023-02-01T19:36:48.255Z,8.67
2023-02-01T19:39:14.894Z,11.50
2023-02-01T19:41:41.355Z,10.00
2023-02-01T19:44:08.612Z,10.00
2023-02-01T19:46:35.167Z,9.00
2023-02-01T19:51:47.558Z,8.80
2023-02-01T19:54:14.834Z,9.50
2023-02-01T19:56:41.244Z,9.50
2023-02-01T19:59:07.561Z,5.00
2023-02-01T20:01:33.185Z,10.67
2023-02-01T20:06:44.581Z,11.00
2023-02-01T20:09:12.851Z,8.40
2023-02-01T20:11:39.330Z,8.67
2023-02-01T20:14:05.730Z,7.67
2023-02-01T20:16:33.211Z,10.00
2023-02-01T20:21:43.779Z,10.33
2023-02-01T20:24:10.143Z,9.50
2023-02-01T20:26:37.398Z,2.00
2023-02-01T20:29:04.807Z,17.33
2023-02-01T20:31:31.304Z,14.00
2023-02-01T20:36:54.114Z,12.00
2023-02-01T20:39:20.704Z,11.00
2023-02-01T20:41:47.137Z,10.67
2023-02-01T20:44:13.548Z,10.00
2023-02-01T20:46:40.149Z,12.00
2023-02-01T20:51:50.765Z,11.00
2023-02-01T20:54:19.904Z,9.17
2023-02-01T20:56:46.293Z,10.00
2023-02-01T20:59:13.525Z,8.50
2023-02-01T21:01:39.873Z,6.00
2023-02-01T21:07:01.083Z,8.00
2023-02-01T21:09:27.474Z,9.00
2023-02-01T21:11:54.695Z,7.00
2023-02-01T21:14:21.050Z,7.67
2023-02-01T21:16:47.389Z,7.33
2023-02-01T21:22:07.781Z,6.33
2023-02-01T21:24:34.257Z,6.00
2023-02-01T21:27:00.608Z,7.00
2023-02-01T21:29:26.964Z,7.00
2023-02-01T21:31:53.346Z,8.33
2023-02-01T21:34:19.752Z,8.67
2023-02-01T21:36:47.219Z,52.00
2023-02-01T21:39:14.668Z,50.50
2023-02-01T21:41:41.155Z,47.00
2023-02-01T21:44:07.600Z,41.00
2023-02-01T21:46:34.074Z,34.50
2023-02-01T21:49:05.770Z,33.67
2023-02-01T21:51:33.391Z,24.00
2023-02-01T21:53:59.877Z,26.00
2023-02-01T21:56:26.321Z,23.00
2023-02-01T21:58:53.736Z,21.00
2023-02-01T22:01:20.247Z,20.50
2023-02-01T22:03:46.685Z,20.50
2023-02-01T22:06:13.991Z,19.00
2023-02-01T22:08:42.269Z,12.00
2023-02-01T22:11:09.850Z,15.00
2023-02-01T22:13:36.248Z,15.00
2023-02-01T22:16:02.656Z,14.00
2023-02-01T22:18:30.963Z,12.60
2023-02-01T22:21:00.143Z,11.67
2023-02-01T22:23:27.416Z,13.67
2023-02-01T22:25:56.586Z,12.00
2023-02-01T22:28:32.298Z,12.40
2023-02-01T22:31:01.520Z,11.60
2023-02-01T22:33:28.104Z,16.00
2023-02-01T22:35:55.360Z,11.50
2023-02-01T22:38:24.512Z,10.50
2023-02-01T22:40:50.938Z,12.00
2023-02-01T22:43:18.181Z,10.50
2023-02-01T22:45:44.654Z,11.50
2023-02-01T22:48:11.089Z,13.00
2023-02-01T22:50:37.590Z,10.00
2023-02-01T22:53:04.032Z,12.00
2023-02-01T22:55:30.450Z,11.50
2023-02-01T22:57:56.911Z,12.50
2023-02-01T23:00:23.337Z,13.00
2023-02-01T23:02:50.752Z,16.00
2023-02-01T23:05:17.320Z,14.00
2023-02-01T23:10:33.309Z,12.33
2023-02-01T23:13:00.554Z,10.75
2023-02-01T23:15:27.009Z,11.00
2023-02-01T23:17:53.495Z,10.50
2023-02-01T23:20:19.924Z,10.00
2023-02-01T23:25:30.003Z,7.67
2023-02-01T23:27:56.343Z,6.00
2023-02-01T23:30:22.721Z,7.67
2023-02-01T23:32:49.054Z,5.67
2023-02-01T23:35:15.467Z,7.33
2023-02-01T23:40:25.843Z,6.00
2023-02-01T23:42:52.373Z,7.00
2023-02-01T23:45:19.579Z,4.50
2023-02-01T23:47:45.929Z,4.33
2023-02-01T23:50:12.295Z,5.00
2023-02-01T23:55:32.740Z,5.67
2023-02-01T23:57:59.069Z,5.00
